createdAt,value
2023-03-21T00:00:29.954Z,103.63
2023-03-21T00:02:58.942Z,101.70
2023-03-21T00:05:29.530Z,102.32
2023-03-21T00:07:58.074Z,94.05
2023-03-21T00:10:40.559Z,97.18
2023-03-21T00:13:15.271Z,102.60
2023-03-21T00:16:04.267Z,94.07
2023-03-21T00:18:42.529Z,94.57
2023-03-21T00:24:00.855Z,85.13
2023-03-21T00:26:31.764Z,81.85
2023-03-21T00:28:59.821Z,82.55
2023-03-21T00:31:28.177Z,87.60
2023-03-21T00:33:56.737Z,88.28
2023-03-21T00:36:27.782Z,85.57
2023-03-21T00:38:56.962Z,84.88
2023-03-21T00:41:47.268Z,75.25
2023-03-21T00:44:18.634Z,87.78
2023-03-21T00:47:04.531Z,81.35
2023-03-21T00:49:42.504Z,74.95
2023-03-21T00:52:18.520Z,79.10
2023-03-21T00:54:53.810Z,71.30
2023-03-21T00:57:37.525Z,88.03
2023-03-21T01:00:10.832Z,75.05
2023-03-21T01:03:14.112Z,71.53
2023-03-21T01:06:05.133Z,105.80
2023-03-21T01:08:51.304Z,119.65
2023-03-21T01:11:23.887Z,164.73
2023-03-21T01:13:57.815Z,118.10
2023-03-21T01:18:56.409Z,110.93
2023-03-21T01:21:25.241Z,97.15
2023-03-21T01:23:53.885Z,111.30
2023-03-21T01:26:22.400Z,125.63
2023-03-21T01:28:50.710Z,108.57
2023-03-21T01:31:19.008Z,121.38
2023-03-21T01:33:47.666Z,124.88
2023-03-21T01:36:24.484Z,130.18
2023-03-21T01:38:56.358Z,132.80
2023-03-21T01:41:47.001Z,113.50
2023-03-21T01:44:23.337Z,131.70
2023-03-21T01:49:50.193Z,147.05
2023-03-21T01:52:35.853Z,157.77
2023-03-21T01:55:12.802Z,161.23
2023-03-21T01:58:05.453Z,179.02
2023-03-21T02:03:50.289Z,172.43
2023-03-21T02:06:52.473Z,231.00
2023-03-21T02:09:48.697Z,260.27
2023-03-21T02:12:26.198Z,249.82
2023-03-21T02:14:59.621Z,230.05
2023-03-21T02:18:13.448Z,225.77
2023-03-21T02:21:15.827Z,217.68
2023-03-21T02:24:05.065Z,211.10
2023-03-21T02:26:41.985Z,192.93
2023-03-21T02:29:44.599Z,229.50
2023-03-21T02:32:49.078Z,196.90
2023-03-21T02:35:44.122Z,220.50
2023-03-21T02:38:48.423Z,221.98
2023-03-21T02:41:38.187Z,208.52
2023-03-21T02:44:36.776Z,216.43
2023-03-21T02:47:15.470Z,199.05
2023-03-21T02:50:06.922Z,184.00
2023-03-21T02:52:39.612Z,206.40
2023-03-21T02:55:43.255Z,201.90
2023-03-21T02:58:55.095Z,196.18
2023-03-21T03:01:26.307Z,208.75
2023-03-21T03:03:55.577Z,205.20
2023-03-21T03:06:29.734Z,180.48
2023-03-21T03:09:29.844Z,243.70
2023-03-21T03:12:47.878Z,187.95
2023-03-21T03:16:00.352Z,159.52
2023-03-21T03:18:54.295Z,175.10
2023-03-21T03:24:25.097Z,169.07
2023-03-21T03:26:57.980Z,166.40
2023-03-21T03:29:29.336Z,157.73
2023-03-21T03:31:59.589Z,165.88
2023-03-21T03:34:39.973Z,169.43
2023-03-21T03:37:16.798Z,189.45
2023-03-21T03:40:12.191Z,151.75
2023-03-21T03:42:54.994Z,125.90
2023-03-21T03:45:34.239Z,146.25
2023-03-21T03:48:09.260Z,131.13
2023-03-21T03:51:03.677Z,132.68
2023-03-21T03:54:12.910Z,129.40
2023-03-21T03:56:45.046Z,133.32
2023-03-21T03:59:23.001Z,130.82
2023-03-21T04:02:01.869Z,117.55
2023-03-21T04:04:32.033Z,124.00
2023-03-21T04:07:00.617Z,125.30
2023-03-21T04:09:43.126Z,121.93
2023-03-21T04:12:15.529Z,110.68
2023-03-21T04:15:01.956Z,109.22
2023-03-21T04:18:12.407Z,101.13
2023-03-21T04:20:40.950Z,94.40
2023-03-21T04:23:12.936Z,92.90
2023-03-21T04:25:55.979Z,113.18
2023-03-21T04:28:28.572Z,91.22
2023-03-21T04:31:22.603Z,110.80
2023-03-21T04:33:56.130Z,100.05
2023-03-21T04:36:33.462Z,103.90
2023-03-21T04:39:12.439Z,102.35
2023-03-21T04:42:01.719Z,134.90
2023-03-21T04:44:30.247Z,89.10
2023-03-21T04:46:58.335Z,93.43
2023-03-21T04:49:26.706Z,89.43
2023-03-21T04:51:54.824Z,89.65
2023-03-21T04:54:24.601Z,87.45
2023-03-21T04:56:56.748Z,75.32
2023-03-21T04:59:28.831Z,75.35
2023-03-21T05:01:59.773Z,76.20
2023-03-21T05:04:28.147Z,67.93
2023-03-21T05:06:59.538Z,84.68
2023-03-21T05:09:29.003Z,76.15
2023-03-21T05:12:00.817Z,77.25
2023-03-21T05:14:33.167Z,63.13
2023-03-21T05:17:05.443Z,64.75
2023-03-21T05:19:35.635Z,58.38
2023-03-21T05:22:08.976Z,59.70
2023-03-21T05:24:42.064Z,62.33
2023-03-21T05:30:10.556Z,47.35
2023-03-21T05:32:38.995Z,58.63
2023-03-21T05:35:11.091Z,51.53
2023-03-21T05:37:43.244Z,59.25
2023-03-21T05:40:12.459Z,65.20
2023-03-21T05:42:47.296Z,69.30
2023-03-21T05:45:23.284Z,63.38
2023-03-21T05:47:58.873Z,66.70
2023-03-21T05:50:35.916Z,64.30
2023-03-21T05:53:58.038Z,63.13
2023-03-21T05:56:28.086Z,55.00
2023-03-21T05:59:04.898Z,61.28
2023-03-21T06:01:44.594Z,72.50
2023-03-21T06:04:18.006Z,72.45
2023-03-21T06:06:47.132Z,98.07
2023-03-21T06:09:17.016Z,127.47
2023-03-21T06:11:57.262Z,129.05
2023-03-21T06:15:09.463Z,111.13
2023-03-21T06:17:47.571Z,93.47
2023-03-21T06:20:18.040Z,93.47
2023-03-21T06:22:54.922Z,106.70
2023-03-21T06:25:23.944Z,125.53
2023-03-21T06:28:14.097Z,116.85
2023-03-21T06:30:43.417Z,105.63
2023-03-21T06:33:21.027Z,90.55
2023-03-21T06:35:53.514Z,86.07
2023-03-21T06:38:23.622Z,85.43
2023-03-21T06:40:51.926Z,81.05
2023-03-21T06:43:24.375Z,86.50
2023-03-21T06:45:52.992Z,76.05
2023-03-21T06:48:24.111Z,83.28
2023-03-21T06:50:56.919Z,88.13
2023-03-21T06:53:28.441Z,91.05
2023-03-21T06:56:34.457Z,89.28
2023-03-21T06:59:09.368Z,85.38
2023-03-21T07:02:14.047Z,66.47
2023-03-21T07:05:00.772Z,57.90
2023-03-21T07:07:32.520Z,60.45
2023-03-21T07:10:13.163Z,47.50
2023-03-21T07:12:51.266Z,67.90
2023-03-21T07:15:26.287Z,69.03
2023-03-21T07:17:59.844Z,67.82
2023-03-21T07:20:31.383Z,66.43
2023-03-21T07:23:05.247Z,70.72
2023-03-21T07:25:33.723Z,68.32
2023-03-21T07:28:02.131Z,65.88
2023-03-21T07:30:30.628Z,76.03
2023-03-21T07:32:58.708Z,62.92
2023-03-21T07:35:28.053Z,75.72
2023-03-21T07:37:59.954Z,61.22
2023-03-21T07:40:28.031Z,62.00
2023-03-21T07:42:56.171Z,56.13
2023-03-21T07:45:36.787Z,58.05
2023-03-21T07:48:10.637Z,59.47
2023-03-21T07:50:41.804Z,60.97
2023-03-21T07:53:12.350Z,57.67
2023-03-21T07:55:42.070Z,64.43
2023-03-21T07:58:12.917Z,51.72
2023-03-21T08:00:41.897Z,57.22
2023-03-21T08:03:10.680Z,61.30
2023-03-21T08:05:50.564Z,61.40
2023-03-21T08:08:31.047Z,52.42
2023-03-21T08:12:04.514Z,54.72
2023-03-21T08:15:08.521Z,56.85
2023-03-21T08:17:39.551Z,57.60
2023-03-21T08:20:12.237Z,48.30
2023-03-21T08:22:41.482Z,41.90
2023-03-21T08:25:14.075Z,53.50
2023-03-21T08:27:51.586Z,45.65
2023-03-21T08:30:23.691Z,52.20
2023-03-21T08:32:51.940Z,44.55
2023-03-21T08:35:20.587Z,46.63
2023-03-21T08:38:10.816Z,44.05
2023-03-21T08:40:38.890Z,39.78
2023-03-21T08:43:08.453Z,38.88
2023-03-21T08:45:37.806Z,35.30
2023-03-21T08:48:10.019Z,44.45
2023-03-21T08:50:38.909Z,49.85
2023-03-21T08:53:10.702Z,39.28
2023-03-21T08:55:44.261Z,46.05
2023-03-21T08:58:13.249Z,41.83
2023-03-21T09:00:49.704Z,41.72
2023-03-21T09:03:20.272Z,42.20
2023-03-21T09:05:51.133Z,36.97
2023-03-21T09:08:24.540Z,38.92
2023-03-21T09:10:54.653Z,36.75
2023-03-21T09:13:27.482Z,36.67
2023-03-21T09:16:01.496Z,35.58
2023-03-21T09:19:00.466Z,41.22
2023-03-21T09:21:36.459Z,32.08
2023-03-21T09:24:07.833Z,30.67
2023-03-21T09:26:44.162Z,38.00
2023-03-21T09:29:16.180Z,37.90
2023-03-21T09:31:44.939Z,41.33
2023-03-21T09:34:17.338Z,31.45
2023-03-21T09:36:49.046Z,36.55
2023-03-21T09:39:20.887Z,27.52
2023-03-21T09:42:19.950Z,32.15
2023-03-21T09:45:17.698Z,28.95
2023-03-21T09:47:54.562Z,33.15
2023-03-21T09:50:48.068Z,33.00
2023-03-21T09:53:36.845Z,23.92
2023-03-21T09:56:05.622Z,28.23
2023-03-21T09:58:46.945Z,26.65
2023-03-21T10:01:27.339Z,27.25
2023-03-21T10:03:57.766Z,33.65
2023-03-21T10:06:30.630Z,27.77
2023-03-21T10:09:25.407Z,24.63
2023-03-21T10:12:01.785Z,28.42
2023-03-21T10:14:35.786Z,28.13
2023-03-21T10:17:43.824Z,28.90
2023-03-21T10:20:33.040Z,28.25
2023-03-21T10:23:06.973Z,32.92
2023-03-21T10:25:41.679Z,24.90
2023-03-21T10:28:17.953Z,24.05
2023-03-21T10:31:01.103Z,25.45
2023-03-21T10:33:35.524Z,30.70
2023-03-21T10:36:07.620Z,28.45
2023-03-21T10:38:36.124Z,27.13
2023-03-21T10:41:05.635Z,23.33
2023-03-21T10:43:36.041Z,26.63
2023-03-21T10:46:36.398Z,23.42
2023-03-21T10:49:07.787Z,21.40
2023-03-21T10:51:41.530Z,30.67
2023-03-21T10:54:15.008Z,31.83
2023-03-21T10:57:14.161Z,30.73
2023-03-21T10:59:58.199Z,26.38
2023-03-21T11:02:33.948Z,18.55
2023-03-21T11:05:06.708Z,27.45
2023-03-21T11:07:37.860Z,25.65
2023-03-21T11:10:38.994Z,22.73
2023-03-21T11:13:24.278Z,26.83
2023-03-21T11:15:58.990Z,25.75
2023-03-21T11:18:31.685Z,30.05
2023-03-21T11:21:06.627Z,22.55
2023-03-21T11:23:36.050Z,24.98
2023-03-21T11:26:04.329Z,24.10
2023-03-21T11:28:40.810Z,21.60
2023-03-21T11:31:11.391Z,20.85
2023-03-21T11:33:54.335Z,22.77
2023-03-21T11:36:22.385Z,24.83
2023-03-21T11:39:15.021Z,23.00
2023-03-21T11:41:44.562Z,29.73
2023-03-21T11:44:43.376Z,28.75
2023-03-21T11:47:13.355Z,25.30
2023-03-21T11:49:41.260Z,20.33
2023-03-21T11:52:13.582Z,30.13
2023-03-21T11:54:55.606Z,29.35
2023-03-21T11:57:49.044Z,26.67
2023-03-21T12:00:42.812Z,26.75
2023-03-21T12:03:50.418Z,30.40
2023-03-21T12:09:09.861Z,29.42
2023-03-21T12:11:57.434Z,28.50
2023-03-21T12:14:47.271Z,28.42
2023-03-21T12:17:46.071Z,26.10
2023-03-21T12:23:37.697Z,27.40
2023-03-21T12:26:36.636Z,24.17
2023-03-21T12:29:23.590Z,29.10
2023-03-21T12:32:04.995Z,28.77
2023-03-21T12:35:17.013Z,21.73
2023-03-21T12:37:53.812Z,21.70
2023-03-21T12:40:39.593Z,26.05
2023-03-21T12:43:37.895Z,24.17
2023-03-21T12:46:36.993Z,19.58
2023-03-21T12:49:08.442Z,26.35
2023-03-21T12:51:50.105Z,19.40
2023-03-21T12:54:31.990Z,25.55
2023-03-21T12:57:30.249Z,20.13
2023-03-21T13:00:00.563Z,20.65
2023-03-21T13:03:20.956Z,15.88
2023-03-21T13:06:03.918Z,17.38
2023-03-21T13:08:40.033Z,16.33
2023-03-21T13:13:48.074Z,18.17
2023-03-21T13:16:28.157Z,17.83
2023-03-21T13:19:41.957Z,19.13
2023-03-21T13:22:30.429Z,15.35
2023-03-21T13:25:22.464Z,15.23
2023-03-21T13:28:07.088Z,17.17
2023-03-21T13:30:43.318Z,23.92
2023-03-21T13:33:14.144Z,17.73
2023-03-21T13:35:45.200Z,18.10
2023-03-21T13:38:26.797Z,21.77
2023-03-21T13:41:11.828Z,16.73
2023-03-21T13:43:51.973Z,18.10
2023-03-21T13:46:52.279Z,18.95
2023-03-21T13:49:31.700Z,20.02
2023-03-21T13:52:04.770Z,20.92
2023-03-21T13:54:56.799Z,15.77
2023-03-21T13:57:32.181Z,19.42
2023-03-21T14:00:22.220Z,18.95
2023-03-21T14:03:17.653Z,21.10
2023-03-21T14:05:50.460Z,19.20
2023-03-21T14:08:31.282Z,18.25
2023-03-21T14:11:08.560Z,34.95
2023-03-21T14:13:50.326Z,22.15
2023-03-21T14:16:19.522Z,20.25
2023-03-21T14:18:55.478Z,19.52
2023-03-21T14:21:30.391Z,22.83
2023-03-21T14:24:14.696Z,22.63
2023-03-21T14:26:49.671Z,15.98
2023-03-21T14:29:31.711Z,18.10
2023-03-21T14:32:03.391Z,20.02
2023-03-21T14:34:33.813Z,20.95
2023-03-21T14:37:02.535Z,25.73
2023-03-21T14:39:32.554Z,27.45
2023-03-21T14:42:11.863Z,26.08
2023-03-21T14:44:55.945Z,24.63
2023-03-21T14:47:29.080Z,28.80
2023-03-21T14:49:58.993Z,30.80
2023-03-21T14:52:32.740Z,32.47
2023-03-21T14:55:01.191Z,32.30
2023-03-21T14:57:32.093Z,27.60
2023-03-21T15:00:14.699Z,23.95
2023-03-21T15:02:48.432Z,28.80
2023-03-21T15:05:31.893Z,28.70
2023-03-21T15:08:15.765Z,34.95
2023-03-21T15:11:06.965Z,42.67
2023-03-21T15:13:40.972Z,40.03
2023-03-21T15:16:12.195Z,45.10
2023-03-21T15:18:40.928Z,38.55
2023-03-21T15:21:14.409Z,49.58
2023-03-21T15:23:47.954Z,46.17
2023-03-21T15:26:22.768Z,50.10
2023-03-21T15:29:12.605Z,43.25
2023-03-21T15:36:13.009Z,43.85
2023-03-21T15:38:49.253Z,44.70
2023-03-21T15:41:22.453Z,44.55
2023-03-21T15:44:07.509Z,60.25
2023-03-21T15:46:49.133Z,46.00
2023-03-21T15:49:27.466Z,48.58
2023-03-21T15:52:15.437Z,37.88
2023-03-21T15:54:56.012Z,32.22
2023-03-21T15:57:33.507Z,42.17
2023-03-21T16:00:21.041Z,33.22
2023-03-21T16:02:57.762Z,35.03
2023-03-21T16:05:29.162Z,37.75
2023-03-21T16:08:08.717Z,37.28
2023-03-21T16:10:43.627Z,38.92
2023-03-21T16:13:14.298Z,34.50
2023-03-21T16:15:44.899Z,38.65
2023-03-21T16:18:17.209Z,31.52
2023-03-21T16:21:06.489Z,34.40
2023-03-21T16:23:35.365Z,34.75
2023-03-21T16:26:09.888Z,40.45
2023-03-21T16:28:38.462Z,37.53
2023-03-21T16:31:36.317Z,48.55
2023-03-21T16:34:08.949Z,36.03
2023-03-21T16:36:43.558Z,51.97
2023-03-21T16:39:19.598Z,48.60
2023-03-21T16:41:48.955Z,52.58
2023-03-21T16:44:17.232Z,58.47
2023-03-21T16:46:47.459Z,52.33
2023-03-21T16:49:25.794Z,51.45
2023-03-21T16:52:02.368Z,42.90
2023-03-21T16:58:07.309Z,48.53
2023-03-21T17:00:41.248Z,62.13
2023-03-21T17:03:19.356Z,53.97
2023-03-21T17:05:53.635Z,49.63
2023-03-21T17:08:22.714Z,51.92
2023-03-21T17:11:14.254Z,47.78
2023-03-21T17:13:50.995Z,50.78
2023-03-21T17:16:27.649Z,43.65
2023-03-21T17:18:58.025Z,47.13
2023-03-21T17:21:40.250Z,41.67
2023-03-21T17:24:19.276Z,55.45
2023-03-21T17:26:50.135Z,44.95
2023-03-21T17:29:19.597Z,47.00
2023-03-21T17:31:55.744Z,44.45
2023-03-21T17:34:27.453Z,45.05
2023-03-21T17:37:13.325Z,41.15
2023-03-21T17:39:51.548Z,42.20
2023-03-21T17:43:04.068Z,39.97
2023-03-21T17:45:37.928Z,39.53
2023-03-21T17:48:53.294Z,41.50
2023-03-21T17:51:40.679Z,47.05
2023-03-21T17:54:43.545Z,44.00
2023-03-21T17:57:17.823Z,49.55
2023-03-21T17:59:59.710Z,45.08
2023-03-21T18:02:35.134Z,45.97
2023-03-21T18:05:11.853Z,45.88
2023-03-21T18:08:11.032Z,51.10
2023-03-21T18:11:04.995Z,56.88
2023-03-21T18:13:59.430Z,58.03
2023-03-21T18:16:42.608Z,60.08
2023-03-21T18:19:13.825Z,53.03
2023-03-21T18:21:56.757Z,50.95
2023-03-21T18:24:53.867Z,56.33
2023-03-21T18:28:06.826Z,57.50
2023-03-21T18:30:56.477Z,49.58
2023-03-21T18:33:28.757Z,52.83
2023-03-21T18:35:59.642Z,63.30
2023-03-21T18:38:33.533Z,51.45
2023-03-21T18:42:02.646Z,53.85
2023-03-21T18:44:39.228Z,53.92
2023-03-21T18:47:09.103Z,41.10
2023-03-21T18:50:12.719Z,45.35
2023-03-21T18:52:39.422Z,45.13
2023-03-21T18:55:14.494Z,40.58
2023-03-21T18:57:45.469Z,42.63
2023-03-21T19:00:17.816Z,43.38
2023-03-21T19:03:17.047Z,50.80
2023-03-21T19:05:58.658Z,42.05
2023-03-21T19:08:28.558Z,44.60
2023-03-21T19:11:00.095Z,44.92
2023-03-21T19:13:33.531Z,51.08
2023-03-21T19:16:02.712Z,50.17
2023-03-21T19:18:52.093Z,50.15
2023-03-21T19:21:22.122Z,52.50
2023-03-21T19:26:47.764Z,47.20
2023-03-21T19:29:16.696Z,47.78
2023-03-21T19:31:48.974Z,52.38
2023-03-21T19:34:19.676Z,58.28
2023-03-21T19:37:06.700Z,54.95
2023-03-21T19:39:40.263Z,63.58
2023-03-21T19:42:16.839Z,81.85
2023-03-21T19:45:24.213Z,70.38
2023-03-21T19:48:20.934Z,81.28
2023-03-21T19:51:31.150Z,87.43
2023-03-21T19:59:55.842Z,89.95
2023-03-21T20:02:37.025Z,79.03
2023-03-21T20:05:15.089Z,79.75
2023-03-21T20:07:57.578Z,63.10
2023-03-21T20:13:19.100Z,65.65
2023-03-21T20:15:55.418Z,67.47
2023-03-21T20:18:35.858Z,63.63
2023-03-21T20:21:17.525Z,70.32
2023-03-21T20:23:53.643Z,63.28
2023-03-21T20:26:44.816Z,60.10
2023-03-21T20:32:29.011Z,47.45
2023-03-21T20:35:13.642Z,52.90
2023-03-21T20:37:58.604Z,44.65
2023-03-21T20:40:28.865Z,37.28
2023-03-21T20:43:44.549Z,43.38
2023-03-21T20:46:04.331Z,40.15
2023-03-21T20:54:16.461Z,44.45
2023-03-21T20:56:46.473Z,50.17
2023-03-21T20:59:24.518Z,40.63
2023-03-21T21:01:59.705Z,40.58
2023-03-21T21:04:55.824Z,39.38
2023-03-21T21:07:21.753Z,42.47
2023-03-21T21:09:53.541Z,44.10
2023-03-21T21:12:27.839Z,47.00
2023-03-21T21:14:56.966Z,40.50
2023-03-21T21:17:54.499Z,47.35
2023-03-21T21:20:20.593Z,41.85
2023-03-21T21:23:00.035Z,42.75
2023-03-21T21:25:33.155Z,40.63
2023-03-21T21:28:10.061Z,38.38
2023-03-21T21:30:41.726Z,36.28
2023-03-21T21:33:11.043Z,42.40
2023-03-21T21:35:39.743Z,39.90
2023-03-21T21:38:09.851Z,39.42
2023-03-21T21:40:38.354Z,38.42
2023-03-21T21:43:09.492Z,37.67
2023-03-21T21:45:37.718Z,32.50
2023-03-21T21:48:07.417Z,41.15
2023-03-21T21:50:36.839Z,37.95
2023-03-21T21:53:06.297Z,34.97
2023-03-21T21:56:02.179Z,38.85
2023-03-21T21:58:34.064Z,35.83
2023-03-21T22:01:02.991Z,39.78
2023-03-21T22:03:36.766Z,40.95
2023-03-21T22:06:06.434Z,42.33
2023-03-21T22:08:35.555Z,40.78
2023-03-21T22:11:04.159Z,39.80
2023-03-21T22:13:32.068Z,36.72
2023-03-21T22:16:00.111Z,39.00
2023-03-21T22:18:29.480Z,40.50
2023-03-21T22:20:59.246Z,43.13
2023-03-21T22:23:30.657Z,39.70
2023-03-21T22:25:59.527Z,37.72
2023-03-21T22:28:27.652Z,38.13
2023-03-21T22:30:56.467Z,39.58
2023-03-21T22:33:27.490Z,42.38
2023-03-21T22:35:59.329Z,39.75
2023-03-21T22:38:28.366Z,35.33
2023-03-21T22:41:17.538Z,45.75
2023-03-21T22:43:46.607Z,37.97
2023-03-21T22:46:15.660Z,40.08
2023-03-21T22:48:44.471Z,44.70
2023-03-21T22:51:12.549Z,34.92
2023-03-21T22:53:42.269Z,38.50
2023-03-21T22:56:13.261Z,35.70
2023-03-21T22:58:44.919Z,38.45
2023-03-21T23:01:14.367Z,42.20
2023-03-21T23:03:43.947Z,37.15
2023-03-21T23:06:14.541Z,34.72
2023-03-21T23:08:42.743Z,44.38
2023-03-21T23:11:18.466Z,37.22
2023-03-21T23:13:53.708Z,31.92
2023-03-21T23:16:31.112Z,39.65
2023-03-21T23:18:59.344Z,42.92
2023-03-21T23:21:28.863Z,46.25
2023-03-21T23:23:57.225Z,43.15
2023-03-21T23:26:26.185Z,42.42
2023-03-21T23:28:59.603Z,42.38
2023-03-21T23:31:28.457Z,42.90
2023-03-21T23:33:58.095Z,39.50
2023-03-21T23:36:26.906Z,44.00
2023-03-21T23:38:55.033Z,39.33
2023-03-21T23:41:26.302Z,47.00
2023-03-21T23:43:54.516Z,40.70
2023-03-21T23:46:23.034Z,41.22
2023-03-21T23:48:54.241Z,39.90
2023-03-21T23:51:22.342Z,39.63
2023-03-21T23:53:53.626Z,38.83
2023-03-21T23:56:23.694Z,42.95
2023-03-21T23:58:58.008Z,51.45
